sensor_id;sensor_type;location;lat;lon;timestamp;pressure;altitude;pressure_sealevel;temperature;humidity
64200;BME280;50516;52.272;5.136;2023-05-03T00:01:50;103015.16;;;9.30;63.56
64200;BME280;50516;52.272;5.136;2023-05-03T00:04:16;103016.03;;;9.30;63.66
64200;BME280;50516;52.272;5.136;2023-05-03T00:06:43;103006.72;;;9.18;63.90
64200;BME280;50516;52.272;5.136;2023-05-03T00:09:08;103001.66;;;9.15;64.41
64200;BME280;50516;52.272;5.136;2023-05-03T00:11:35;103007.34;;;9.13;64.64
64200;BME280;50516;52.272;5.136;2023-05-03T00:14:00;103021.25;;;9.12;64.79
64200;BME280;50516;52.272;5.136;2023-05-03T00:16:25;103021.69;;;9.09;64.73
64200;BME280;50516;52.272;5.136;2023-05-03T00:18:51;103021.06;;;9.07;65.00
64200;BME280;50516;52.272;5.136;2023-05-03T00:21:16;103019.81;;;9.03;64.99
64200;BME280;50516;52.272;5.136;2023-05-03T00:23:41;103027.78;;;8.98;65.25
64200;BME280;50516;52.272;5.136;2023-05-03T00:26:07;103017.03;;;8.96;65.74
64200;BME280;50516;52.272;5.136;2023-05-03T00:28:32;103022.09;;;8.92;65.68
64200;BME280;50516;52.272;5.136;2023-05-03T00:31:05;103014.69;;;8.93;65.83
64200;BME280;50516;52.272;5.136;2023-05-03T00:33:30;103013.66;;;8.87;65.90
64200;BME280;50516;52.272;5.136;2023-05-03T00:35:56;103016.19;;;8.89;65.96
64200;BME280;50516;52.272;5.136;2023-05-03T00:38:21;103009.19;;;8.73;66.28
64200;BME280;50516;52.272;5.136;2023-05-03T00:40:52;103018.03;;;8.82;66.16
64200;BME280;50516;52.272;5.136;2023-05-03T00:43:18;103015.09;;;8.76;66.39
64200;BME280;50516;52.272;5.136;2023-05-03T00:45:43;103009.59;;;8.76;66.28
64200;BME280;50516;52.272;5.136;2023-05-03T00:48:11;103014.47;;;8.74;66.38
64200;BME280;50516;52.272;5.136;2023-05-03T00:50:37;103015.06;;;8.70;66.58
64200;BME280;50516;52.272;5.136;2023-05-03T00:53:03;103016.34;;;8.67;66.88
64200;BME280;50516;52.272;5.136;2023-05-03T00:55:29;103011.09;;;8.72;66.61
64200;BME280;50516;52.272;5.136;2023-05-03T00:57:55;103011.72;;;8.68;66.62
64200;BME280;50516;52.272;5.136;2023-05-03T01:00:21;103010.41;;;8.64;66.93
64200;BME280;50516;52.272;5.136;2023-05-03T01:02:47;103018.84;;;8.62;66.97
64200;BME280;50516;52.272;5.136;2023-05-03T01:05:14;103023.28;;;8.63;66.90
64200;BME280;50516;52.272;5.136;2023-05-03T01:07:47;103019.69;;;8.63;66.83
64200;BME280;50516;52.272;5.136;2023-05-03T01:12:58;103008.94;;;8.54;67.16
64200;BME280;50516;52.272;5.136;2023-05-03T01:18:06;103011.22;;;8.51;67.77
64200;BME280;50516;52.272;5.136;2023-05-03T01:20:35;103009.13;;;8.46;67.73
64200;BME280;50516;52.272;5.136;2023-05-03T01:23:05;103016.22;;;8.40;67.71
64200;BME280;50516;52.272;5.136;2023-05-03T01:25:35;103015.78;;;8.37;68.17
64200;BME280;50516;52.272;5.136;2023-05-03T01:28:00;103014.50;;;8.33;68.49
64200;BME280;50516;52.272;5.136;2023-05-03T01:30:26;103013.84;;;8.31;68.56
64200;BME280;50516;52.272;5.136;2023-05-03T01:33:31;103017.00;;;8.28;68.53
64200;BME280;50516;52.272;5.136;2023-05-03T01:36:20;103010.88;;;8.19;68.93
64200;BME280;50516;52.272;5.136;2023-05-03T01:38:47;103010.41;;;8.15;68.93
64200;BME280;50516;52.272;5.136;2023-05-03T01:41:15;103005.59;;;8.17;68.95
64200;BME280;50516;52.272;5.136;2023-05-03T01:43:42;103013.34;;;8.14;69.01
64200;BME280;50516;52.272;5.136;2023-05-03T01:46:08;103008.69;;;8.08;68.97
64200;BME280;50516;52.272;5.136;2023-05-03T01:48:33;103011.88;;;8.11;68.71
64200;BME280;50516;52.272;5.136;2023-05-03T01:50:59;103016.03;;;8.07;68.99
64200;BME280;50516;52.272;5.136;2023-05-03T01:53:24;103002.97;;;8.02;69.64
64200;BME280;50516;52.272;5.136;2023-05-03T01:55:49;103004.88;;;8.02;69.51
64200;BME280;50516;52.272;5.136;2023-05-03T01:58:15;103002.13;;;8.02;69.36
64200;BME280;50516;52.272;5.136;2023-05-03T02:00:40;102995.00;;;8.01;69.13
64200;BME280;50516;52.272;5.136;2023-05-03T02:03:05;102991.19;;;8.02;69.18
64200;BME280;50516;52.272;5.136;2023-05-03T02:05:31;102992.41;;;7.93;69.35
64200;BME280;50516;52.272;5.136;2023-05-03T02:07:56;102991.53;;;7.85;69.99
64200;BME280;50516;52.272;5.136;2023-05-03T02:10:21;102987.69;;;7.80;70.10
64200;BME280;50516;52.272;5.136;2023-05-03T02:12:47;102975.88;;;7.73;70.16
64200;BME280;50516;52.272;5.136;2023-05-03T02:15:12;102976.06;;;7.71;70.40
64200;BME280;50516;52.272;5.136;2023-05-03T02:17:38;102972.09;;;7.74;70.24
64200;BME280;50516;52.272;5.136;2023-05-03T02:20:04;102967.06;;;7.77;70.03
64200;BME280;50516;52.272;5.136;2023-05-03T02:22:31;102963.44;;;7.70;70.45
64200;BME280;50516;52.272;5.136;2023-05-03T02:24:56;102962.78;;;7.61;70.59
64200;BME280;50516;52.272;5.136;2023-05-03T02:27:22;102953.06;;;7.59;70.82
64200;BME280;50516;52.272;5.136;2023-05-03T02:29:48;102957.72;;;7.65;70.62
64200;BME280;50516;52.272;5.136;2023-05-03T02:32:13;102951.78;;;7.55;71.15
64200;BME280;50516;52.272;5.136;2023-05-03T02:34:38;102945.94;;;7.58;70.57
64200;BME280;50516;52.272;5.136;2023-05-03T02:37:03;102943.44;;;7.63;70.58
64200;BME280;50516;52.272;5.136;2023-05-03T02:39:29;102950.13;;;7.60;70.37
64200;BME280;50516;52.272;5.136;2023-05-03T02:41:54;102949.28;;;7.60;70.37
64200;BME280;50516;52.272;5.136;2023-05-03T02:44:20;102961.66;;;7.56;69.95
64200;BME280;50516;52.272;5.136;2023-05-03T02:46:45;102957.84;;;7.50;69.94
64200;BME280;50516;52.272;5.136;2023-05-03T02:49:10;102967.81;;;7.58;69.79
64200;BME280;50516;52.272;5.136;2023-05-03T02:51:36;102958.81;;;7.64;69.27
64200;BME280;50516;52.272;5.136;2023-05-03T02:54:01;102968.63;;;7.58;69.44
64200;BME280;50516;52.272;5.136;2023-05-03T02:56:27;102982.47;;;7.50;70.03
64200;BME280;50516;52.272;5.136;2023-05-03T02:58:53;102979.47;;;7.45;70.68
64200;BME280;50516;52.272;5.136;2023-05-03T03:01:19;102976.13;;;7.43;70.92
64200;BME280;50516;52.272;5.136;2023-05-03T03:03:45;102981.06;;;7.32;70.50
64200;BME280;50516;52.272;5.136;2023-05-03T03:06:10;102980.22;;;7.32;70.48
64200;BME280;50516;52.272;5.136;2023-05-03T03:08:36;102979.31;;;7.25;70.58
64200;BME280;50516;52.272;5.136;2023-05-03T03:11:02;102984.78;;;7.25;70.33
64200;BME280;50516;52.272;5.136;2023-05-03T03:13:27;102981.16;;;7.18;70.46
64200;BME280;50516;52.272;5.136;2023-05-03T03:15:53;102977.78;;;7.16;70.67
64200;BME280;50516;52.272;5.136;2023-05-03T03:18:18;102983.38;;;7.07;71.25
64200;BME280;50516;52.272;5.136;2023-05-03T03:20:43;102979.97;;;7.05;70.91
64200;BME280;50516;52.272;5.136;2023-05-03T03:23:09;102979.09;;;6.98;71.16
64200;BME280;50516;52.272;5.136;2023-05-03T03:25:34;102984.31;;;6.93;71.31
64200;BME280;50516;52.272;5.136;2023-05-03T03:27:59;102986.84;;;6.94;71.72
64200;BME280;50516;52.272;5.136;2023-05-03T03:30:25;102978.56;;;6.88;71.75
64200;BME280;50516;52.272;5.136;2023-05-03T03:32:51;102984.00;;;6.88;71.70
64200;BME280;50516;52.272;5.136;2023-05-03T03:35:16;102992.34;;;6.80;72.10
64200;BME280;50516;52.272;5.136;2023-05-03T03:37:42;102994.34;;;6.71;72.39
64200;BME280;50516;52.272;5.136;2023-05-03T03:40:08;103000.19;;;6.68;72.33
64200;BME280;50516;52.272;5.136;2023-05-03T03:42:33;103000.13;;;6.61;72.55
64200;BME280;50516;52.272;5.136;2023-05-03T03:44:59;102999.38;;;6.67;72.70
64200;BME280;50516;52.272;5.136;2023-05-03T03:47:24;102992.78;;;6.62;72.54
64200;BME280;50516;52.272;5.136;2023-05-03T03:49:49;102993.84;;;6.61;72.28
64200;BME280;50516;52.272;5.136;2023-05-03T03:52:15;102989.16;;;6.54;72.30
64200;BME280;50516;52.272;5.136;2023-05-03T03:54:40;102979.81;;;6.49;72.47
64200;BME280;50516;52.272;5.136;2023-05-03T03:57:06;102991.31;;;6.44;72.96
64200;BME280;50516;52.272;5.136;2023-05-03T03:59:31;102983.63;;;6.48;72.29
64200;BME280;50516;52.272;5.136;2023-05-03T04:01:56;102979.81;;;6.49;72.59
64200;BME280;50516;52.272;5.136;2023-05-03T04:04:22;102994.03;;;6.44;73.20
64200;BME280;50516;52.272;5.136;2023-05-03T04:06:47;102988.13;;;6.40;72.96
64200;BME280;50516;52.272;5.136;2023-05-03T04:09:12;102998.66;;;6.44;72.95
64200;BME280;50516;52.272;5.136;2023-05-03T04:11:39;103003.09;;;6.45;72.75
64200;BME280;50516;52.272;5.136;2023-05-03T04:14:04;103005.25;;;6.34;72.99
64200;BME280;50516;52.272;5.136;2023-05-03T04:16:29;103005.34;;;6.41;72.55
64200;BME280;50516;52.272;5.136;2023-05-03T04:18:55;103010.34;;;6.37;72.80
64200;BME280;50516;52.272;5.136;2023-05-03T04:21:20;103019.59;;;6.36;72.62
64200;BME280;50516;52.272;5.136;2023-05-03T04:23:45;103017.88;;;6.35;72.52
64200;BME280;50516;52.272;5.136;2023-05-03T04:26:11;103008.94;;;6.42;72.42
64200;BME280;50516;52.272;5.136;2023-05-03T04:28:36;103017.38;;;6.47;72.63
64200;BME280;50516;52.272;5.136;2023-05-03T04:31:03;103025.19;;;6.50;72.62
64200;BME280;50516;52.272;5.136;2023-05-03T04:33:28;103032.44;;;6.57;72.53
64200;BME280;50516;52.272;5.136;2023-05-03T04:35:54;103038.72;;;6.58;72.19
64200;BME280;50516;52.272;5.136;2023-05-03T04:38:19;103030.44;;;6.66;71.88
64200;BME280;50516;52.272;5.136;2023-05-03T04:40:46;103029.78;;;6.64;72.50
64200;BME280;50516;52.272;5.136;2023-05-03T04:43:11;103034.09;;;6.73;71.91
64200;BME280;50516;52.272;5.136;2023-05-03T04:45:37;103034.34;;;6.79;71.88
64200;BME280;50516;52.272;5.136;2023-05-03T04:48:02;103030.38;;;6.81;71.68
64200;BME280;50516;52.272;5.136;2023-05-03T04:50:29;103036.00;;;6.94;71.91
64200;BME280;50516;52.272;5.136;2023-05-03T04:52:54;103032.06;;;7.04;71.20
64200;BME280;50516;52.272;5.136;2023-05-03T04:55:20;103032.03;;;7.19;70.80
64200;BME280;50516;52.272;5.136;2023-05-03T04:57:45;103038.44;;;7.32;70.32
64200;BME280;50516;52.272;5.136;2023-05-03T05:00:11;103042.16;;;7.46;70.30
64200;BME280;50516;52.272;5.136;2023-05-03T05:02:37;103046.03;;;7.59;70.05
64200;BME280;50516;52.272;5.136;2023-05-03T05:05:02;103044.28;;;7.79;69.45
64200;BME280;50516;52.272;5.136;2023-05-03T05:07:28;103042.31;;;7.95;69.21
64200;BME280;50516;52.272;5.136;2023-05-03T05:09:53;103046.41;;;8.12;68.80
64200;BME280;50516;52.272;5.136;2023-05-03T05:12:19;103046.50;;;8.32;68.48
64200;BME280;50516;52.272;5.136;2023-05-03T05:14:44;103043.88;;;8.52;68.14
64200;BME280;50516;52.272;5.136;2023-05-03T05:17:10;103048.78;;;8.70;67.81
64200;BME280;50516;52.272;5.136;2023-05-03T05:19:35;103046.94;;;8.84;67.30
64200;BME280;50516;52.272;5.136;2023-05-03T05:22:00;103043.81;;;9.07;66.89
64200;BME280;50516;52.272;5.136;2023-05-03T05:24:26;103050.81;;;9.30;66.02
64200;BME280;50516;52.272;5.136;2023-05-03T05:26:51;103040.06;;;9.42;66.07
64200;BME280;50516;52.272;5.136;2023-05-03T05:29:16;103041.75;;;9.63;64.94
64200;BME280;50516;52.272;5.136;2023-05-03T05:31:42;103036.25;;;9.76;64.89
64200;BME280;50516;52.272;5.136;2023-05-03T05:34:07;103035.78;;;9.93;64.92
64200;BME280;50516;52.272;5.136;2023-05-03T05:36:32;103037.47;;;10.00;65.50
64200;BME280;50516;52.272;5.136;2023-05-03T05:38:58;103037.00;;;10.17;64.00
64200;BME280;50516;52.272;5.136;2023-05-03T05:41:23;103035.28;;;10.29;63.29
64200;BME280;50516;52.272;5.136;2023-05-03T05:43:48;103033.81;;;10.40;63.31
64200;BME280;50516;52.272;5.136;2023-05-03T05:46:14;103034.78;;;10.52;61.90
64200;BME280;50516;52.272;5.136;2023-05-03T05:48:40;103032.66;;;10.61;62.16
64200;BME280;50516;52.272;5.136;2023-05-03T05:51:06;103043.78;;;10.73;61.94
64200;BME280;50516;52.272;5.136;2023-05-03T05:53:32;103047.75;;;10.77;60.86
64200;BME280;50516;52.272;5.136;2023-05-03T05:55:57;103054.88;;;10.91;60.61
64200;BME280;50516;52.272;5.136;2023-05-03T05:58:23;103061.34;;;11.04;60.15
64200;BME280;50516;52.272;5.136;2023-05-03T06:00:48;103060.75;;;11.02;59.64
64200;BME280;50516;52.272;5.136;2023-05-03T06:03:14;103058.69;;;11.22;59.13
64200;BME280;50516;52.272;5.136;2023-05-03T06:05:40;103056.41;;;11.19;58.16
64200;BME280;50516;52.272;5.136;2023-05-03T06:08:05;103061.81;;;11.32;58.89
64200;BME280;50516;52.272;5.136;2023-05-03T06:10:31;103058.72;;;11.47;57.92
64200;BME280;50516;52.272;5.136;2023-05-03T06:12:56;103045.84;;;11.41;57.46
64200;BME280;50516;52.272;5.136;2023-05-03T06:15:21;103050.25;;;11.49;57.35
64200;BME280;50516;52.272;5.136;2023-05-03T06:17:47;103049.28;;;11.62;56.67
64200;BME280;50516;52.272;5.136;2023-05-03T06:20:12;103059.31;;;11.49;56.08
64200;BME280;50516;52.272;5.136;2023-05-03T06:22:37;103050.75;;;11.39;56.37
64200;BME280;50516;52.272;5.136;2023-05-03T06:25:03;103053.59;;;11.26;55.94
64200;BME280;50516;52.272;5.136;2023-05-03T06:27:29;103041.09;;;11.55;55.86
64200;BME280;50516;52.272;5.136;2023-05-03T06:29:54;103048.78;;;11.72;55.37
64200;BME280;50516;52.272;5.136;2023-05-03T06:32:20;103047.94;;;11.71;55.31
64200;BME280;50516;52.272;5.136;2023-05-03T06:34:48;103052.03;;;11.62;54.28
64200;BME280;50516;52.272;5.136;2023-05-03T06:37:14;103050.78;;;11.58;53.70
64200;BME280;50516;52.272;5.136;2023-05-03T06:39:39;103047.78;;;11.66;53.57
64200;BME280;50516;52.272;5.136;2023-05-03T06:42:04;103051.00;;;11.81;53.41
64200;BME280;50516;52.272;5.136;2023-05-03T06:44:30;103049.28;;;11.62;52.35
64200;BME280;50516;52.272;5.136;2023-05-03T06:46:55;103058.81;;;11.84;52.77
64200;BME280;50516;52.272;5.136;2023-05-03T06:49:20;103043.28;;;11.97;52.53
64200;BME280;50516;52.272;5.136;2023-05-03T06:51:46;103052.38;;;11.97;51.48
64200;BME280;50516;52.272;5.136;2023-05-03T06:54:11;103043.94;;;11.67;50.98
64200;BME280;50516;52.272;5.136;2023-05-03T06:56:37;103040.75;;;11.70;52.10
64200;BME280;50516;52.272;5.136;2023-05-03T06:59:03;103030.00;;;11.87;51.48
64200;BME280;50516;52.272;5.136;2023-05-03T07:01:29;103032.72;;;11.94;51.40
64200;BME280;50516;52.272;5.136;2023-05-03T07:03:55;103028.56;;;12.03;51.08
64200;BME280;50516;52.272;5.136;2023-05-03T07:06:20;103025.53;;;12.11;50.64
64200;BME280;50516;52.272;5.136;2023-05-03T07:08:49;103020.84;;;11.93;51.07
64200;BME280;50516;52.272;5.136;2023-05-03T07:11:16;103025.38;;;12.24;50.92
64200;BME280;50516;52.272;5.136;2023-05-03T07:13:41;103016.25;;;12.42;50.45
64200;BME280;50516;52.272;5.136;2023-05-03T07:16:06;103015.56;;;12.29;50.53
64200;BME280;50516;52.272;5.136;2023-05-03T07:18:31;103017.63;;;12.33;50.76
64200;BME280;50516;52.272;5.136;2023-05-03T07:20:57;103013.53;;;12.24;50.16
64200;BME280;50516;52.272;5.136;2023-05-03T07:23:22;103016.03;;;12.26;50.09
64200;BME280;50516;52.272;5.136;2023-05-03T07:25:47;103005.75;;;12.51;50.07
64200;BME280;50516;52.272;5.136;2023-05-03T07:28:13;103012.88;;;12.71;49.13
64200;BME280;50516;52.272;5.136;2023-05-03T07:30:38;103022.44;;;12.56;48.92
64200;BME280;50516;52.272;5.136;2023-05-03T07:33:04;103010.31;;;12.09;49.17
64200;BME280;50516;52.272;5.136;2023-05-03T07:35:30;103000.59;;;12.06;49.66
64200;BME280;50516;52.272;5.136;2023-05-03T07:37:57;102997.97;;;11.93;49.35
64200;BME280;50516;52.272;5.136;2023-05-03T07:40:22;102991.81;;;12.46;49.46
64200;BME280;50516;52.272;5.136;2023-05-03T07:42:47;102991.22;;;12.44;49.00
64200;BME280;50516;52.272;5.136;2023-05-03T07:45:13;102991.13;;;12.81;49.30
64200;BME280;50516;52.272;5.136;2023-05-03T07:47:38;102991.94;;;12.70;49.56
64200;BME280;50516;52.272;5.136;2023-05-03T07:50:05;102997.47;;;12.82;49.71
64200;BME280;50516;52.272;5.136;2023-05-03T07:52:37;102990.31;;;12.92;49.11
64200;BME280;50516;52.272;5.136;2023-05-03T07:55:04;102992.38;;;12.97;49.55
64200;BME280;50516;52.272;5.136;2023-05-03T07:57:29;102990.78;;;12.89;48.92
64200;BME280;50516;52.272;5.136;2023-05-03T07:59:55;102990.66;;;12.84;47.90
64200;BME280;50516;52.272;5.136;2023-05-03T08:02:20;102992.75;;;12.70;47.95
64200;BME280;50516;52.272;5.136;2023-05-03T08:04:46;102988.41;;;12.63;48.00
64200;BME280;50516;52.272;5.136;2023-05-03T08:07:12;102987.22;;;12.89;47.83
64200;BME280;50516;52.272;5.136;2023-05-03T08:09:38;102991.91;;;13.00;47.78
64200;BME280;50516;52.272;5.136;2023-05-03T08:12:03;102976.28;;;13.36;47.13
64200;BME280;50516;52.272;5.136;2023-05-03T08:14:28;102979.81;;;13.13;46.99
64200;BME280;50516;52.272;5.136;2023-05-03T08:16:54;102970.28;;;12.85;47.29
64200;BME280;50516;52.272;5.136;2023-05-03T08:19:19;102979.00;;;12.82;47.38
64200;BME280;50516;52.272;5.136;2023-05-03T08:21:44;102970.34;;;13.09;47.68
64200;BME280;50516;52.272;5.136;2023-05-03T08:24:11;102963.59;;;13.05;46.87
64200;BME280;50516;52.272;5.136;2023-05-03T08:26:38;102972.78;;;12.75;47.52
64200;BME280;50516;52.272;5.136;2023-05-03T08:29:04;102964.56;;;13.10;47.38
64200;BME280;50516;52.272;5.136;2023-05-03T08:31:29;102978.50;;;13.15;47.03
64200;BME280;50516;52.272;5.136;2023-05-03T08:33:55;102987.09;;;12.95;46.82
64200;BME280;50516;52.272;5.136;2023-05-03T08:36:20;102991.81;;;13.30;46.85
64200;BME280;50516;52.272;5.136;2023-05-03T08:38:46;102986.31;;;13.30;46.76
64200;BME280;50516;52.272;5.136;2023-05-03T08:41:40;102998.00;;;13.32;45.70
64200;BME280;50516;52.272;5.136;2023-05-03T08:44:07;102995.03;;;13.04;45.88
64200;BME280;50516;52.272;5.136;2023-05-03T08:46:35;103007.81;;;12.98;46.25
64200;BME280;50516;52.272;5.136;2023-05-03T08:49:02;103003.28;;;12.62;47.48
64200;BME280;50516;52.272;5.136;2023-05-03T08:51:28;103008.81;;;12.62;47.26
64200;BME280;50516;52.272;5.136;2023-05-03T08:53:53;102999.03;;;12.47;47.55
64200;BME280;50516;52.272;5.136;2023-05-03T08:56:27;102985.06;;;12.60;47.56
64200;BME280;50516;52.272;5.136;2023-05-03T08:58:53;102998.56;;;12.81;46.79
64200;BME280;50516;52.272;5.136;2023-05-03T09:01:18;103004.22;;;12.86;46.58
64200;BME280;50516;52.272;5.136;2023-05-03T09:03:51;103008.72;;;13.10;46.62
64200;BME280;50516;52.272;5.136;2023-05-03T09:06:21;103011.22;;;13.12;45.68
64200;BME280;50516;52.272;5.136;2023-05-03T09:08:50;103000.44;;;12.68;46.24
64200;BME280;50516;52.272;5.136;2023-05-03T09:11:32;103006.28;;;12.90;46.70
64200;BME280;50516;52.272;5.136;2023-05-03T09:16:38;102997.78;;;13.04;45.49
64200;BME280;50516;52.272;5.136;2023-05-03T09:19:05;102992.94;;;12.87;46.09
64200;BME280;50516;52.272;5.136;2023-05-03T09:21:34;102993.16;;;13.28;45.82
64200;BME280;50516;52.272;5.136;2023-05-03T09:24:00;102994.75;;;13.47;45.42
64200;BME280;50516;52.272;5.136;2023-05-03T09:26:33;102994.28;;;13.62;45.06
64200;BME280;50516;52.272;5.136;2023-05-03T09:29:02;102983.72;;;13.71;44.83
64200;BME280;50516;52.272;5.136;2023-05-03T09:31:29;102978.03;;;13.90;44.70
64200;BME280;50516;52.272;5.136;2023-05-03T09:33:55;102985.84;;;13.93;44.76
64200;BME280;50516;52.272;5.136;2023-05-03T09:36:21;102982.81;;;14.06;44.89
64200;BME280;50516;52.272;5.136;2023-05-03T09:38:47;102981.00;;;14.12;45.21
64200;BME280;50516;52.272;5.136;2023-05-03T09:41:13;102982.31;;;14.09;44.29
64200;BME280;50516;52.272;5.136;2023-05-03T09:43:49;102979.47;;;14.04;44.37
64200;BME280;50516;52.272;5.136;2023-05-03T09:46:15;102984.03;;;13.98;44.05
64200;BME280;50516;52.272;5.136;2023-05-03T09:48:40;102981.06;;;13.64;45.47
64200;BME280;50516;52.272;5.136;2023-05-03T09:51:06;102982.00;;;13.94;44.85
64200;BME280;50516;52.272;5.136;2023-05-03T09:53:33;102981.78;;;13.95;44.85
64200;BME280;50516;52.272;5.136;2023-05-03T09:56:01;102974.75;;;14.16;44.53
64200;BME280;50516;52.272;5.136;2023-05-03T09:58:27;102977.09;;;14.36;44.09
64200;BME280;50516;52.272;5.136;2023-05-03T10:00:55;102976.69;;;14.45;43.83
64200;BME280;50516;52.272;5.136;2023-05-03T10:03:27;102974.25;;;14.60;43.99
64200;BME280;50516;52.272;5.136;2023-05-03T10:05:57;102973.53;;;14.53;44.00
64200;BME280;50516;52.272;5.136;2023-05-03T10:08:34;102965.28;;;14.41;44.25
64200;BME280;50516;52.272;5.136;2023-05-03T10:11:02;102960.28;;;14.55;43.88
64200;BME280;50516;52.272;5.136;2023-05-03T10:13:28;102968.00;;;14.65;43.78
64200;BME280;50516;52.272;5.136;2023-05-03T10:16:11;102965.34;;;14.29;44.34
64200;BME280;50516;52.272;5.136;2023-05-03T10:18:53;102971.38;;;14.26;44.08
64200;BME280;50516;52.272;5.136;2023-05-03T10:21:28;102964.47;;;14.69;44.11
64200;BME280;50516;52.272;5.136;2023-05-03T10:24:10;102955.41;;;14.45;44.02
64200;BME280;50516;52.272;5.136;2023-05-03T10:26:41;102960.81;;;14.23;44.61
64200;BME280;50516;52.272;5.136;2023-05-03T10:31:57;102969.00;;;14.06;44.20
64200;BME280;50516;52.272;5.136;2023-05-03T10:34:24;102963.81;;;14.10;44.66
64200;BME280;50516;52.272;5.136;2023-05-03T10:36:51;102963.81;;;14.21;44.29
64200;BME280;50516;52.272;5.136;2023-05-03T10:39:20;102956.31;;;14.63;43.96
64200;BME280;50516;52.272;5.136;2023-05-03T10:41:58;102958.97;;;14.57;44.20
64200;BME280;50516;52.272;5.136;2023-05-03T10:44:27;102962.97;;;14.50;43.67
64200;BME280;50516;52.272;5.136;2023-05-03T10:46:54;102953.41;;;14.40;43.88
64200;BME280;50516;52.272;5.136;2023-05-03T10:49:21;102950.78;;;14.34;44.07
64200;BME280;50516;52.272;5.136;2023-05-03T10:51:47;102958.03;;;14.23;43.67
64200;BME280;50516;52.272;5.136;2023-05-03T10:54:12;102955.41;;;14.45;43.88
64200;BME280;50516;52.272;5.136;2023-05-03T10:56:52;102950.50;;;14.93;43.08
64200;BME280;50516;52.272;5.136;2023-05-03T10:59:17;102953.69;;;14.56;43.05
64200;BME280;50516;52.272;5.136;2023-05-03T11:01:44;102941.75;;;14.38;44.28
64200;BME280;50516;52.272;5.136;2023-05-03T11:04:15;102931.66;;;14.73;44.26
64200;BME280;50516;52.272;5.136;2023-05-03T11:06:43;102928.03;;;15.06;43.33
64200;BME280;50516;52.272;5.136;2023-05-03T11:09:10;102924.44;;;15.06;43.27
64200;BME280;50516;52.272;5.136;2023-05-03T11:11:40;102926.97;;;15.07;42.68
64200;BME280;50516;52.272;5.136;2023-05-03T11:14:06;102920.00;;;14.88;42.33
64200;BME280;50516;52.272;5.136;2023-05-03T11:16:33;102923.78;;;14.53;43.07
64200;BME280;50516;52.272;5.136;2023-05-03T11:19:00;102930.50;;;14.57;42.78
64200;BME280;50516;52.272;5.136;2023-05-03T11:21:26;102905.91;;;14.72;42.18
64200;BME280;50516;52.272;5.136;2023-05-03T11:23:51;102909.78;;;14.71;42.40
64200;BME280;50516;52.272;5.136;2023-05-03T11:26:16;102912.97;;;14.51;42.43
64200;BME280;50516;52.272;5.136;2023-05-03T11:28:43;102906.81;;;14.32;43.00
64200;BME280;50516;52.272;5.136;2023-05-03T11:31:10;102908.66;;;14.43;42.75
64200;BME280;50516;52.272;5.136;2023-05-03T11:33:37;102909.28;;;14.74;42.64
64200;BME280;50516;52.272;5.136;2023-05-03T11:36:04;102903.00;;;14.96;42.37
64200;BME280;50516;52.272;5.136;2023-05-03T11:38:32;102903.91;;;15.19;41.90
64200;BME280;50516;52.272;5.136;2023-05-03T11:40:58;102901.03;;;15.30;41.67
64200;BME280;50516;52.272;5.136;2023-05-03T11:43:27;102903.22;;;15.28;41.95
64200;BME280;50516;52.272;5.136;2023-05-03T11:45:55;102909.25;;;15.25;41.66
64200;BME280;50516;52.272;5.136;2023-05-03T11:48:22;102897.88;;;14.88;42.41
64200;BME280;50516;52.272;5.136;2023-05-03T11:50:48;102897.25;;;15.37;41.93
64200;BME280;50516;52.272;5.136;2023-05-03T11:53:24;102890.25;;;15.34;42.31
64200;BME280;50516;52.272;5.136;2023-05-03T11:55:51;102893.63;;;15.36;41.78
64200;BME280;50516;52.272;5.136;2023-05-03T11:58:20;102896.59;;;15.29;41.66
64200;BME280;50516;52.272;5.136;2023-05-03T12:00:50;102884.13;;;15.10;41.71
64200;BME280;50516;52.272;5.136;2023-05-03T12:03:27;102879.78;;;14.97;41.84
64200;BME280;50516;52.272;5.136;2023-05-03T12:06:00;102871.81;;;15.01;41.51
64200;BME280;50516;52.272;5.136;2023-05-03T12:08:30;102865.28;;;15.29;41.42
64200;BME280;50516;52.272;5.136;2023-05-03T12:10:56;102867.72;;;15.42;41.69
64200;BME280;50516;52.272;5.136;2023-05-03T12:13:31;102867.03;;;15.35;41.91
64200;BME280;50516;52.272;5.136;2023-05-03T12:15:58;102857.97;;;15.40;41.84
64200;BME280;50516;52.272;5.136;2023-05-03T12:18:25;102856.91;;;15.24;41.81
64200;BME280;50516;52.272;5.136;2023-05-03T12:20:55;102850.13;;;15.14;41.60
64200;BME280;50516;52.272;5.136;2023-05-03T12:23:24;102855.84;;;15.25;41.99
64200;BME280;50516;52.272;5.136;2023-05-03T12:25:50;102847.63;;;15.13;41.90
64200;BME280;50516;52.272;5.136;2023-05-03T12:28:18;102848.16;;;14.93;42.15
64200;BME280;50516;52.272;5.136;2023-05-03T12:30:45;102846.66;;;14.85;41.82
64200;BME280;50516;52.272;5.136;2023-05-03T12:33:10;102849.50;;;14.90;42.45
64200;BME280;50516;52.272;5.136;2023-05-03T12:35:35;102845.16;;;14.94;42.24
64200;BME280;50516;52.272;5.136;2023-05-03T12:38:01;102826.09;;;14.98;41.95
64200;BME280;50516;52.272;5.136;2023-05-03T12:40:30;102841.56;;;14.94;42.43
64200;BME280;50516;52.272;5.136;2023-05-03T12:42:56;102843.31;;;14.83;42.43
64200;BME280;50516;52.272;5.136;2023-05-03T12:45:21;102821.00;;;15.07;42.01
64200;BME280;50516;52.272;5.136;2023-05-03T12:47:46;102823.66;;;15.19;42.49
64200;BME280;50516;52.272;5.136;2023-05-03T12:50:12;102819.38;;;15.11;42.63
64200;BME280;50516;52.272;5.136;2023-05-03T12:52:37;102811.38;;;15.31;42.88
64200;BME280;50516;52.272;5.136;2023-05-03T12:55:04;102818.69;;;15.21;42.79
64200;BME280;50516;52.272;5.136;2023-05-03T12:57:30;102811.16;;;15.16;42.85
64200;BME280;50516;52.272;5.136;2023-05-03T12:59:56;102806.00;;;15.03;42.78
64200;BME280;50516;52.272;5.136;2023-05-03T13:02:21;102806.31;;;15.06;42.57
64200;BME280;50516;52.272;5.136;2023-05-03T13:04:47;102800.88;;;15.33;42.22